sensor_id;sensor_type;location;lat;lon;timestamp;pressure;altitude;pressure_sealevel;temperature;humidity
74218;BME280;62579;47.288;18.646;2023-06-14T00:01:45;99573.84;;;13.01;84.85
74218;BME280;62579;47.288;18.646;2023-06-14T00:04:12;99575.13;;;12.82;84.54
74218;BME280;62579;47.288;18.646;2023-06-14T00:06:38;99578.12;;;12.78;84.69
74218;BME280;62579;47.288;18.646;2023-06-14T00:09:04;99580.94;;;12.73;84.65
74218;BME280;62579;47.288;18.646;2023-06-14T00:24:25;99600.31;;;12.32;87.95
74218;BME280;62579;47.288;18.646;2023-06-14T00:26:51;99596.13;;;12.31;88.03
74218;BME280;62579;47.288;18.646;2023-06-14T00:29:16;99611.13;;;12.19;88.76
74218;BME280;62579;47.288;18.646;2023-06-14T00:31:41;99608.38;;;12.19;88.75
74218;BME280;62579;47.288;18.646;2023-06-14T00:34:06;99613.13;;;12.18;88.84
74218;BME280;62579;47.288;18.646;2023-06-14T00:36:32;99617.38;;;12.14;88.91
74218;BME280;62579;47.288;18.646;2023-06-14T00:38:57;99607.59;;;11.99;89.76
74218;BME280;62579;47.288;18.646;2023-06-14T00:41:23;99601.66;;;12.01;89.32
74218;BME280;62579;47.288;18.646;2023-06-14T00:43:48;99604.31;;;12.07;88.86
74218;BME280;62579;47.288;18.646;2023-06-14T00:46:14;99608.88;;;11.98;89.82
74218;BME280;62579;47.288;18.646;2023-06-14T00:48:40;99602.81;;;12.05;89.41
74218;BME280;62579;47.288;18.646;2023-06-14T00:51:05;99607.47;;;12.11;89.30
74218;BME280;62579;47.288;18.646;2023-06-14T00:53:31;99611.69;;;12.12;89.24
74218;BME280;62579;47.288;18.646;2023-06-14T00:55:59;99608.12;;;11.98;90.59
74218;BME280;62579;47.288;18.646;2023-06-14T00:58:25;99610.94;;;12.11;90.19
74218;BME280;62579;47.288;18.646;2023-06-14T01:00:51;99611.91;;;12.14;89.08
74218;BME280;62579;47.288;18.646;2023-06-14T01:03:16;99616.19;;;12.09;89.11
74218;BME280;62579;47.288;18.646;2023-06-14T01:05:53;99612.66;;;12.14;88.71
74218;BME280;62579;47.288;18.646;2023-06-14T01:08:40;99614.16;;;12.15;88.37
74218;BME280;62579;47.288;18.646;2023-06-14T01:11:13;99607.25;;;12.09;88.68
74218;BME280;62579;47.288;18.646;2023-06-14T01:13:42;99608.59;;;12.02;89.01
74218;BME280;62579;47.288;18.646;2023-06-14T01:16:10;99607.53;;;12.05;88.99
74218;BME280;62579;47.288;18.646;2023-06-14T01:18:35;99598.84;;;12.07;88.73
74218;BME280;62579;47.288;18.646;2023-06-14T01:21:01;99607.53;;;12.05;88.85
74218;BME280;62579;47.288;18.646;2023-06-14T01:23:31;99614.47;;;12.06;89.06
74218;BME280;62579;47.288;18.646;2023-06-14T01:25:58;99608.97;;;12.12;88.68
74218;BME280;62579;47.288;18.646;2023-06-14T01:28:24;99606.34;;;12.00;89.53
74218;BME280;62579;47.288;18.646;2023-06-14T01:30:52;99611.81;;;12.00;89.75
74218;BME280;62579;47.288;18.646;2023-06-14T01:33:20;99601.41;;;11.99;89.65
74218;BME280;62579;47.288;18.646;2023-06-14T01:35:48;99604.59;;;12.03;89.51
74218;BME280;62579;47.288;18.646;2023-06-14T01:38:15;99604.66;;;11.97;89.84
74218;BME280;62579;47.288;18.646;2023-06-14T01:40:45;99599.66;;;12.01;89.54
74218;BME280;62579;47.288;18.646;2023-06-14T01:43:14;99603.34;;;12.04;89.54
74218;BME280;62579;47.288;18.646;2023-06-14T01:45:42;99610.84;;;11.98;89.68
74218;BME280;62579;47.288;18.646;2023-06-14T01:48:11;99616.06;;;11.96;89.74
74218;BME280;62579;47.288;18.646;2023-06-14T01:50:37;99605.22;;;11.90;89.87
74218;BME280;62579;47.288;18.646;2023-06-14T01:53:02;99613.13;;;11.94;89.77
74218;BME280;62579;47.288;18.646;2023-06-14T01:55:27;99616.06;;;11.96;89.35
74218;BME280;62579;47.288;18.646;2023-06-14T01:57:53;99610.09;;;11.97;89.19
74218;BME280;62579;47.288;18.646;2023-06-14T02:00:19;99614.59;;;11.95;89.36
74218;BME280;62579;47.288;18.646;2023-06-14T02:02:46;99612.13;;;11.91;89.72
74218;BME280;62579;47.288;18.646;2023-06-14T02:05:11;99613.41;;;11.90;90.03
74218;BME280;62579;47.288;18.646;2023-06-14T02:07:37;99607.47;;;11.86;90.20
74218;BME280;62579;47.288;18.646;2023-06-14T02:10:04;99611.69;;;11.87;90.24
74218;BME280;62579;47.288;18.646;2023-06-14T02:12:30;99616.34;;;11.92;90.25
74218;BME280;62579;47.288;18.646;2023-06-14T02:14:55;99613.69;;;11.87;90.53
74218;BME280;62579;47.288;18.646;2023-06-14T02:17:21;99608.22;;;11.87;90.87
74218;BME280;62579;47.288;18.646;2023-06-14T02:19:47;99619.31;;;11.94;90.48
74218;BME280;62579;47.288;18.646;2023-06-14T02:22:12;99622.03;;;11.94;90.42
74218;BME280;62579;47.288;18.646;2023-06-14T02:24:40;99617.38;;;11.89;90.90
74218;BME280;62579;47.288;18.646;2023-06-14T02:27:05;99617.88;;;11.88;90.98
74218;BME280;62579;47.288;18.646;2023-06-14T02:29:31;99620.87;;;11.84;91.07
74218;BME280;62579;47.288;18.646;2023-06-14T02:31:56;99621.59;;;11.90;91.04
74218;BME280;62579;47.288;18.646;2023-06-14T02:34:22;99621.09;;;11.86;91.33
74218;BME280;62579;47.288;18.646;2023-06-14T02:36:47;99618.16;;;11.84;91.35
74218;BME280;62579;47.288;18.646;2023-06-14T02:39:13;99620.66;;;11.82;91.23
74218;BME280;62579;47.288;18.646;2023-06-14T02:41:39;99616.97;;;11.80;91.44
74218;BME280;62579;47.288;18.646;2023-06-14T02:44:05;99619.69;;;11.80;91.74
74218;BME280;62579;47.288;18.646;2023-06-14T02:46:31;99621.69;;;11.79;92.02
74218;BME280;62579;47.288;18.646;2023-06-14T02:48:56;99620.66;;;11.82;92.30
74218;BME280;62579;47.288;18.646;2023-06-14T02:51:22;99616.44;;;11.81;92.68
74218;BME280;62579;47.288;18.646;2023-06-14T02:56:43;99628.09;;;11.82;92.55
74218;BME280;62579;47.288;18.646;2023-06-14T02:59:08;99628.31;;;11.84;93.01
74218;BME280;62579;47.288;18.646;2023-06-14T03:01:36;99622.66;;;11.82;93.30
74218;BME280;62579;47.288;18.646;2023-06-14T03:04:09;99628.63;;;11.80;93.65
74218;BME280;62579;47.288;18.646;2023-06-14T03:06:34;99635.13;;;11.72;94.13
74218;BME280;62579;47.288;18.646;2023-06-14T03:09:00;99635.59;;;11.76;94.33
74218;BME280;62579;47.288;18.646;2023-06-14T03:11:30;99632.12;;;11.75;95.33
74218;BME280;62579;47.288;18.646;2023-06-14T03:13:55;99630.09;;;11.81;94.94
74218;BME280;62579;47.288;18.646;2023-06-14T03:16:21;99625.31;;;11.87;95.70
74218;BME280;62579;47.288;18.646;2023-06-14T03:18:49;99625.50;;;11.95;95.52
74218;BME280;62579;47.288;18.646;2023-06-14T03:21:14;99628.88;;;12.07;94.67
74218;BME280;62579;47.288;18.646;2023-06-14T03:23:41;99620.31;;;12.16;93.78
74218;BME280;62579;47.288;18.646;2023-06-14T03:26:06;99635.97;;;12.15;93.66
74218;BME280;62579;47.288;18.646;2023-06-14T03:28:32;99637.16;;;12.20;93.99
74218;BME280;62579;47.288;18.646;2023-06-14T03:30:57;99639.16;;;12.19;94.57
74218;BME280;62579;47.288;18.646;2023-06-14T03:33:22;99634.16;;;12.23;94.66
74218;BME280;62579;47.288;18.646;2023-06-14T03:35:50;99642.78;;;12.27;94.85
74218;BME280;62579;47.288;18.646;2023-06-14T03:38:15;99640.00;;;12.33;94.74
74218;BME280;62579;47.288;18.646;2023-06-14T03:40:40;99650.31;;;12.40;94.86
74218;BME280;62579;47.288;18.646;2023-06-14T03:43:06;99644.31;;;12.47;94.58
74218;BME280;62579;47.288;18.646;2023-06-14T03:45:31;99650.66;;;12.55;94.54
74218;BME280;62579;47.288;18.646;2023-06-14T03:47:56;99646.09;;;12.63;94.56
74218;BME280;62579;47.288;18.646;2023-06-14T03:50:22;99646.03;;;12.69;94.66
74218;BME280;62579;47.288;18.646;2023-06-14T03:52:48;99646.62;;;12.80;94.94
74218;BME280;62579;47.288;18.646;2023-06-14T03:55:14;99647.69;;;12.96;95.17
74218;BME280;62579;47.288;18.646;2023-06-14T03:57:41;99643.31;;;13.06;94.88
74218;BME280;62579;47.288;18.646;2023-06-14T04:00:08;99643.41;;;13.19;93.87
74218;BME280;62579;47.288;18.646;2023-06-14T04:02:34;99648.66;;;13.17;93.30
74218;BME280;62579;47.288;18.646;2023-06-14T04:05:01;99647.09;;;13.21;93.63
74218;BME280;62579;47.288;18.646;2023-06-14T04:07:27;99655.12;;;13.33;93.66
74218;BME280;62579;47.288;18.646;2023-06-14T04:09:53;99653.19;;;13.46;94.16
74218;BME280;62579;47.288;18.646;2023-06-14T04:12:19;99658.16;;;13.61;92.51
74218;BME280;62579;47.288;18.646;2023-06-14T04:14:45;99662.19;;;13.60;91.84
74218;BME280;62579;47.288;18.646;2023-06-14T04:17:11;99657.66;;;13.62;91.66
74218;BME280;62579;47.288;18.646;2023-06-14T04:19:36;99656.53;;;13.71;92.11
74218;BME280;62579;47.288;18.646;2023-06-14T04:22:02;99653.91;;;13.78;91.96
74218;BME280;62579;47.288;18.646;2023-06-14T04:24:30;99658.34;;;13.81;92.64
74218;BME280;62579;47.288;18.646;2023-06-14T04:26:58;99659.72;;;13.88;91.68
74218;BME280;62579;47.288;18.646;2023-06-14T04:29:24;99663.94;;;13.89;91.93
74218;BME280;62579;47.288;18.646;2023-06-14T04:31:51;99659.53;;;13.99;92.58
74218;BME280;62579;47.288;18.646;2023-06-14T04:34:17;99665.22;;;14.01;92.48
74218;BME280;62579;47.288;18.646;2023-06-14T04:36:43;99664.19;;;14.17;92.12
74218;BME280;62579;47.288;18.646;2023-06-14T04:39:15;99665.47;;;14.29;91.78
74218;BME280;62579;47.288;18.646;2023-06-14T04:41:40;99669.03;;;14.24;92.29
74218;BME280;62579;47.288;18.646;2023-06-14T04:44:06;99672.19;;;14.28;93.00
74218;BME280;62579;47.288;18.646;2023-06-14T04:46:32;99672.66;;;14.46;92.95
74218;BME280;62579;47.288;18.646;2023-06-14T04:48:58;99671.81;;;14.51;92.18
74218;BME280;62579;47.288;18.646;2023-06-14T04:51:27;99670.22;;;14.42;93.39
74218;BME280;62579;47.288;18.646;2023-06-14T04:53:58;99671.16;;;14.31;92.92
74218;BME280;62579;47.288;18.646;2023-06-14T04:56:26;99667.47;;;14.29;93.90
74218;BME280;62579;47.288;18.646;2023-06-14T04:58:52;99668.97;;;14.43;93.29
74218;BME280;62579;47.288;18.646;2023-06-14T05:01:18;99671.59;;;14.49;93.31
74218;BME280;62579;47.288;18.646;2023-06-14T05:03:44;99672.22;;;14.81;91.54
74218;BME280;62579;47.288;18.646;2023-06-14T05:06:10;99674.84;;;14.86;91.48
74218;BME280;62579;47.288;18.646;2023-06-14T05:08:37;99675.94;;;15.04;91.05
74218;BME280;62579;47.288;18.646;2023-06-14T05:11:02;99678.09;;;14.85;91.47
74218;BME280;62579;47.288;18.646;2023-06-14T05:13:28;99683.25;;;14.88;91.24
74218;BME280;62579;47.288;18.646;2023-06-14T05:15:53;99680.16;;;15.05;91.37
74218;BME280;62579;47.288;18.646;2023-06-14T05:18:18;99687.91;;;15.27;91.20
74218;BME280;62579;47.288;18.646;2023-06-14T05:20:45;99692.16;;;15.15;90.33
74218;BME280;62579;47.288;18.646;2023-06-14T05:23:11;99693.47;;;15.35;89.85
74218;BME280;62579;47.288;18.646;2023-06-14T05:25:41;99696.69;;;15.59;89.87
74218;BME280;62579;47.288;18.646;2023-06-14T05:28:07;99698.75;;;15.46;89.25
74218;BME280;62579;47.288;18.646;2023-06-14T05:30:32;99698.75;;;15.46;89.87
74218;BME280;62579;47.288;18.646;2023-06-14T05:32:58;99702.06;;;15.52;89.61
74218;BME280;62579;47.288;18.646;2023-06-14T05:35:23;99695.94;;;15.59;88.95
74218;BME280;62579;47.288;18.646;2023-06-14T05:37:52;99696.69;;;15.80;88.22
74218;BME280;62579;47.288;18.646;2023-06-14T05:40:17;99699.09;;;15.84;88.12
74218;BME280;62579;47.288;18.646;2023-06-14T05:42:43;99690.56;;;15.95;88.41
74218;BME280;62579;47.288;18.646;2023-06-14T05:45:08;99688.16;;;16.12;88.23
74218;BME280;62579;47.288;18.646;2023-06-14T05:47:33;99684.09;;;16.34;87.99
74218;BME280;62579;47.288;18.646;2023-06-14T05:49:59;99687.03;;;16.36;86.93
74218;BME280;62579;47.288;18.646;2023-06-14T05:52:24;99682.72;;;16.48;86.08
74218;BME280;62579;47.288;18.646;2023-06-14T05:54:50;99681.03;;;16.73;86.08
74218;BME280;62579;47.288;18.646;2023-06-14T05:57:15;99677.75;;;16.67;85.18
74218;BME280;62579;47.288;18.646;2023-06-14T05:59:41;99684.06;;;16.54;86.30
74218;BME280;62579;47.288;18.646;2023-06-14T06:02:06;99691.78;;;16.56;86.07
74218;BME280;62579;47.288;18.646;2023-06-14T06:04:32;99693.59;;;16.53;86.00
74218;BME280;62579;47.288;18.646;2023-06-14T06:06:57;99695.16;;;16.69;86.20
74218;BME280;62579;47.288;18.646;2023-06-14T06:09:22;99693.31;;;16.64;85.37
74218;BME280;62579;47.288;18.646;2023-06-14T06:11:48;99692.41;;;16.69;85.49
74218;BME280;62579;47.288;18.646;2023-06-14T06:14:16;99691.19;;;16.78;85.79
74218;BME280;62579;47.288;18.646;2023-06-14T06:16:41;99690.78;;;16.74;84.66
74218;BME280;62579;47.288;18.646;2023-06-14T06:19:07;99688.59;;;16.80;85.85
74218;BME280;62579;47.288;18.646;2023-06-14T06:21:32;99695.69;;;16.68;85.59
74218;BME280;62579;47.288;18.646;2023-06-14T06:23:58;99692.38;;;16.62;86.05
74218;BME280;62579;47.288;18.646;2023-06-14T06:26:23;99693.97;;;16.57;85.56
74218;BME280;62579;47.288;18.646;2023-06-14T06:28:48;99691.31;;;16.72;85.58
74218;BME280;62579;47.288;18.646;2023-06-14T06:31:14;99691.50;;;16.74;85.50
74218;BME280;62579;47.288;18.646;2023-06-14T06:33:40;99698.78;;;16.64;85.83
74218;BME280;62579;47.288;18.646;2023-06-14T06:36:05;99701.47;;;16.85;85.44
74218;BME280;62579;47.288;18.646;2023-06-14T06:38:31;99703.72;;;17.02;85.97
74218;BME280;62579;47.288;18.646;2023-06-14T06:40:56;99701.31;;;16.91;84.60
74218;BME280;62579;47.288;18.646;2023-06-14T06:43:22;99701.97;;;16.83;84.21
74218;BME280;62579;47.288;18.646;2023-06-14T06:45:48;99703.53;;;17.00;84.96
74218;BME280;62579;47.288;18.646;2023-06-14T06:48:13;99702.50;;;17.10;84.30
74218;BME280;62579;47.288;18.646;2023-06-14T06:50:38;99696.63;;;17.14;83.62
74218;BME280;62579;47.288;18.646;2023-06-14T06:53:04;99708.38;;;17.22;84.46
74218;BME280;62579;47.288;18.646;2023-06-14T06:55:30;99707.88;;;17.38;83.64
74218;BME280;62579;47.288;18.646;2023-06-14T06:57:55;99705.28;;;17.25;82.89
74218;BME280;62579;47.288;18.646;2023-06-14T07:00:21;99713.72;;;17.27;82.09
74218;BME280;62579;47.288;18.646;2023-06-14T07:02:47;99710.78;;;17.25;83.65
74218;BME280;62579;47.288;18.646;2023-06-14T07:05:13;99717.38;;;17.22;82.19
74218;BME280;62579;47.288;18.646;2023-06-14T07:07:38;99712.22;;;17.19;82.44
74218;BME280;62579;47.288;18.646;2023-06-14T07:10:04;99708.19;;;17.20;82.81
74218;BME280;62579;47.288;18.646;2023-06-14T07:12:33;99712.22;;;17.19;82.20
74218;BME280;62579;47.288;18.646;2023-06-14T07:15:01;99710.06;;;17.32;82.01
74218;BME280;62579;47.288;18.646;2023-06-14T07:17:26;99708.06;;;17.40;82.38
74218;BME280;62579;47.288;18.646;2023-06-14T07:19:52;99706.28;;;17.51;82.63
74218;BME280;62579;47.288;18.646;2023-06-14T07:22:18;99707.41;;;17.55;82.14
74218;BME280;62579;47.288;18.646;2023-06-14T07:24:44;99706.84;;;17.64;81.26
74218;BME280;62579;47.288;18.646;2023-06-14T07:27:09;99708.00;;;17.99;81.57
74218;BME280;62579;47.288;18.646;2023-06-14T07:29:35;99705.59;;;18.11;82.40
74218;BME280;62579;47.288;18.646;2023-06-14T07:32:01;99709.09;;;18.11;79.83
74218;BME280;62579;47.288;18.646;2023-06-14T07:34:26;99706.16;;;17.94;79.91
74218;BME280;62579;47.288;18.646;2023-06-14T07:36:52;99710.38;;;17.95;78.80
74218;BME280;62579;47.288;18.646;2023-06-14T07:39:19;99709.09;;;18.04;79.23
74218;BME280;62579;47.288;18.646;2023-06-14T07:41:44;99710.56;;;18.12;77.93
74218;BME280;62579;47.288;18.646;2023-06-14T07:44:10;99724.34;;;18.12;78.87
74218;BME280;62579;47.288;18.646;2023-06-14T07:46:35;99724.53;;;18.14;74.59
74218;BME280;62579;47.288;18.646;2023-06-14T07:49:01;99723.97;;;18.31;74.57
74218;BME280;62579;47.288;18.646;2023-06-14T07:51:26;99724.31;;;18.35;74.42
74218;BME280;62579;47.288;18.646;2023-06-14T07:53:51;99728.19;;;18.39;75.71
74218;BME280;62579;47.288;18.646;2023-06-14T07:56:17;99731.31;;;18.28;75.43
74218;BME280;62579;47.288;18.646;2023-06-14T07:58:42;99724.88;;;18.48;75.89
74218;BME280;62579;47.288;18.646;2023-06-14T08:01:11;99728.16;;;18.47;74.54
74218;BME280;62579;47.288;18.646;2023-06-14T08:03:37;99728.91;;;18.32;72.83
74218;BME280;62579;47.288;18.646;2023-06-14T08:06:02;99727.63;;;18.48;72.28
74218;BME280;62579;47.288;18.646;2023-06-14T08:08:29;99722.47;;;18.60;73.05
74218;BME280;62579;47.288;18.646;2023-06-14T08:10:54;99733.69;;;18.62;73.83
74218;BME280;62579;47.288;18.646;2023-06-14T08:13:20;99738.06;;;18.73;71.85
74218;BME280;62579;47.288;18.646;2023-06-14T08:15:45;99735.31;;;18.73;72.80
74218;BME280;62579;47.288;18.646;2023-06-14T08:18:11;99737.69;;;18.76;73.54
74218;BME280;62579;47.288;18.646;2023-06-14T08:20:36;99735.47;;;18.82;72.67
74218;BME280;62579;47.288;18.646;2023-06-14T08:23:02;99736.38;;;18.85;72.40
74218;BME280;62579;47.288;18.646;2023-06-14T08:25:28;99742.25;;;18.89;71.46
74218;BME280;62579;47.288;18.646;2023-06-14T08:27:54;99739.31;;;18.87;70.34
74218;BME280;62579;47.288;18.646;2023-06-14T08:30:19;99747.03;;;18.88;72.45
74218;BME280;62579;47.288;18.646;2023-06-14T08:32:45;99749.97;;;18.90;72.21
74218;BME280;62579;47.288;18.646;2023-06-14T08:35:10;99755.31;;;18.81;72.74
74218;BME280;62579;47.288;18.646;2023-06-14T08:37:40;99757.53;;;18.82;71.99
74218;BME280;62579;47.288;18.646;2023-06-14T08:40:26;99764.19;;;18.72;72.02
74218;BME280;62579;47.288;18.646;2023-06-14T08:42:54;99768.94;;;18.71;71.67
74218;BME280;62579;47.288;18.646;2023-06-14T08:45:21;99771.69;;;18.79;72.51
74218;BME280;62579;47.288;18.646;2023-06-14T08:47:47;99762.31;;;18.82;72.60
74218;BME280;62579;47.288;18.646;2023-06-14T08:50:27;99766.34;;;18.81;71.55
74218;BME280;62579;47.288;18.646;2023-06-14T08:52:57;99767.66;;;18.80;71.94
74218;BME280;62579;47.288;18.646;2023-06-14T08:55:27;99767.81;;;18.89;71.65
74218;BME280;62579;47.288;18.646;2023-06-14T08:57:57;99772.03;;;18.83;71.50
74218;BME280;62579;47.288;18.646;2023-06-14T09:00:24;99775.31;;;19.04;70.16
74218;BME280;62579;47.288;18.646;2023-06-14T09:02:50;99779.16;;;19.08;70.97
74218;BME280;62579;47.288;18.646;2023-06-14T09:05:22;99771.00;;;19.18;71.04
74218;BME280;62579;47.288;18.646;2023-06-14T09:07:48;99775.75;;;19.33;71.99
74218;BME280;62579;47.288;18.646;2023-06-14T09:10:15;99774.63;;;19.43;72.21
74218;BME280;62579;47.288;18.646;2023-06-14T09:12:41;99765.41;;;19.48;68.90
74218;BME280;62579;47.288;18.646;2023-06-14T09:15:07;99767.09;;;19.44;67.34
74218;BME280;62579;47.288;18.646;2023-06-14T09:17:34;99762.84;;;19.43;66.23
74218;BME280;62579;47.288;18.646;2023-06-14T09:20:02;99765.78;;;19.77;65.47
74218;BME280;62579;47.288;18.646;2023-06-14T09:22:30;99758.31;;;19.95;64.75
74218;BME280;62579;47.288;18.646;2023-06-14T09:24:55;99755.09;;;20.06;63.96
74218;BME280;62579;47.288;18.646;2023-06-14T09:27:21;99759.81;;;20.13;65.79
74218;BME280;62579;47.288;18.646;2023-06-14T09:29:46;99756.97;;;20.28;67.94
74218;BME280;62579;47.288;18.646;2023-06-14T09:32:12;99747.75;;;20.50;65.50
74218;BME280;62579;47.288;18.646;2023-06-14T09:34:37;99750.44;;;20.75;66.34
74218;BME280;62579;47.288;18.646;2023-06-14T09:37:02;99746.22;;;20.74;61.36
74218;BME280;62579;47.288;18.646;2023-06-14T09:39:28;99751.81;;;20.66;60.61
74218;BME280;62579;47.288;18.646;2023-06-14T09:41:53;99748.66;;;20.70;60.30
74218;BME280;62579;47.288;18.646;2023-06-14T09:44:19;99749.53;;;20.38;59.21
74218;BME280;62579;47.288;18.646;2023-06-14T09:46:45;99744.09;;;20.65;59.10
74218;BME280;62579;47.288;18.646;2023-06-14T09:49:11;99753.47;;;20.86;57.58
74218;BME280;62579;47.288;18.646;2023-06-14T09:51:45;99751.34;;;20.94;53.92
74218;BME280;62579;47.288;18.646;2023-06-14T09:54:15;99747.75;;;21.02;54.18
74218;BME280;62579;47.288;18.646;2023-06-14T09:56:41;99753.22;;;21.09;56.80
74218;BME280;62579;47.288;18.646;2023-06-14T09:59:09;99754.44;;;21.16;55.93
74218;BME280;62579;47.288;18.646;2023-06-14T10:01:38;99757.69;;;21.05;59.42
74218;BME280;62579;47.288;18.646;2023-06-14T10:04:06;99747.66;;;21.26;61.43
74218;BME280;62579;47.288;18.646;2023-06-14T10:06:41;99737.03;;;21.49;61.71
74218;BME280;62579;47.288;18.646;2023-06-14T10:09:09;99741.63;;;21.64;58.89
74218;BME280;62579;47.288;18.646;2023-06-14T10:11:35;99745.56;;;21.71;58.28
74218;BME280;62579;47.288;18.646;2023-06-14T10:14:02;99742.25;;;21.72;57.95
74218;BME280;62579;47.288;18.646;2023-06-14T10:16:52;99741.87;;;21.85;58.90
74218;BME280;62579;47.288;18.646;2023-06-14T10:19:29;99744.06;;;21.60;56.25
74218;BME280;62579;47.288;18.646;2023-06-14T10:22:08;99740.38;;;21.48;59.07
74218;BME280;62579;47.288;18.646;2023-06-14T10:24:45;99735.66;;;21.41;57.49
74218;BME280;62579;47.288;18.646;2023-06-14T10:27:14;99741.72;;;21.30;58.95
74218;BME280;62579;47.288;18.646;2023-06-14T10:32:23;99740.16;;;21.36;56.44
74218;BME280;62579;47.288;18.646;2023-06-14T10:34:58;99741.41;;;21.26;56.49
74218;BME280;62579;47.288;18.646;2023-06-14T10:37:23;99737.09;;;21.15;54.70
74218;BME280;62579;47.288;18.646;2023-06-14T10:39:52;99733.06;;;21.43;56.40
74218;BME280;62579;47.288;18.646;2023-06-14T10:42:19;99734.63;;;21.36;52.99
74218;BME280;62579;47.288;18.646;2023-06-14T10:44:55;99723.53;;;21.36;53.89
74218;BME280;62579;47.288;18.646;2023-06-14T10:47:33;99723.91;;;21.50;55.27
74218;BME280;62579;47.288;18.646;2023-06-14T10:50:10;99715.31;;;21.82;53.51
74218;BME280;62579;47.288;18.646;2023-06-14T10:52:40;99714.72;;;21.84;53.61
74218;BME280;62579;47.288;18.646;2023-06-14T10:55:11;99703.50;;;22.18;52.76
74218;BME280;62579;47.288;18.646;2023-06-14T11:00:22;99715.50;;;22.40;48.33
74218;BME280;62579;47.288;18.646;2023-06-14T11:10:50;99704.47;;;22.03;43.85
74218;BME280;62579;47.288;18.646;2023-06-14T11:13:16;99705.53;;;22.27;43.11
74218;BME280;62579;47.288;18.646;2023-06-14T11:15:45;99710.81;;;22.23;45.12
74218;BME280;62579;47.288;18.646;2023-06-14T11:18:13;99704.41;;;22.49;44.57
74218;BME280;62579;47.288;18.646;2023-06-14T11:20:39;99701.50;;;22.47;43.69
74218;BME280;62579;47.288;18.646;2023-06-14T11:23:04;99706.63;;;22.51;43.06
74218;BME280;62579;47.288;18.646;2023-06-14T11:25:30;99706.75;;;22.62;45.64
74218;BME280;62579;47.288;18.646;2023-06-14T11:27:55;99703.59;;;22.85;47.34
74218;BME280;62579;47.288;18.646;2023-06-14T11:30:21;99701.81;;;22.99;46.71
74218;BME280;62579;47.288;18.646;2023-06-14T11:32:51;99708.22;;;23.11;45.45
74218;BME280;62579;47.288;18.646;2023-06-14T11:35:17;99704.69;;;23.30;43.69
74218;BME280;62579;47.288;18.646;2023-06-14T11:37:44;99711.50;;;23.48;47.02
74218;BME280;62579;47.288;18.646;2023-06-14T11:40:10;99695.81;;;23.72;45.15
74218;BME280;62579;47.288;18.646;2023-06-14T11:42:37;99708.22;;;23.71;46.07
74218;BME280;62579;47.288;18.646;2023-06-14T11:45:03;99706.13;;;23.41;44.25
74218;BME280;62579;47.288;18.646;2023-06-14T11:47:34;99710.09;;;23.38;43.57
74218;BME280;62579;47.288;18.646;2023-06-14T11:50:00;99715.22;;;23.22;43.03
74218;BME280;62579;47.288;18.646;2023-06-14T11:52:26;99710.69;;;23.17;45.18
74218;BME280;62579;47.288;18.646;2023-06-14T11:54:53;99709.41;;;23.18;44.46
74218;BME280;62579;47.288;18.646;2023-06-14T11:57:18;99700.91;;;23.16;43.79
74218;BME280;62579;47.288;18.646;2023-06-14T11:59:44;99704.44;;;23.07;41.50
74218;BME280;62579;47.288;18.646;2023-06-14T12:02:10;99705.47;;;22.73;42.58
74218;BME280;62579;47.288;18.646;2023-06-14T12:04:41;99707.50;;;22.72;42.59
74218;BME280;62579;47.288;18.646;2023-06-14T12:07:14;99706.06;;;22.91;41.89
74218;BME280;62579;47.288;18.646;2023-06-14T12:12:26;99700.81;;;22.85;40.71
74218;BME280;62579;47.288;18.646;2023-06-14T12:14:52;99706.19;;;22.93;41.59
74218;BME280;62579;47.288;18.646;2023-06-14T12:17:19;99695.25;;;22.85;41.34
74218;BME280;62579;47.288;18.646;2023-06-14T12:19:45;99711.72;;;23.02;42.82
74218;BME280;62579;47.288;18.646;2023-06-14T12:22:14;99713.22;;;22.75;40.68
74218;BME280;62579;47.288;18.646;2023-06-14T12:24:42;99705.03;;;22.77;42.59
74218;BME280;62579;47.288;18.646;2023-06-14T12:27:08;99704.88;;;22.65;42.32
74218;BME280;62579;47.288;18.646;2023-06-14T12:29:34;99713.22;;;22.65;44.01
74218;BME280;62579;47.288;18.646;2023-06-14T12:32:00;99718.03;;;22.64;42.57
74218;BME280;62579;47.288;18.646;2023-06-14T12:34:26;99721.63;;;22.29;45.01
74218;BME280;62579;47.288;18.646;2023-06-14T12:36:53;99720.47;;;22.32;45.49
74218;BME280;62579;47.288;18.646;2023-06-14T12:39:18;99718.09;;;22.38;45.15
74218;BME280;62579;47.288;18.646;2023-06-14T12:41:44;99720.25;;;22.10;45.28
74218;BME280;62579;47.288;18.646;2023-06-14T12:44:13;99721.84;;;22.04;46.07
74218;BME280;62579;47.288;18.646;2023-06-14T12:46:39;99718.25;;;22.30;45.44
74218;BME280;62579;47.288;18.646;2023-06-14T12:49:07;99715.47;;;22.21;47.10
74218;BME280;62579;47.288;18.646;2023-06-14T12:51:32;99708.44;;;22.20;45.88
74218;BME280;62579;47.288;18.646;2023-06-14T12:53:58;99708.06;;;22.42;45.24
74218;BME280;62579;47.288;18.646;2023-06-14T12:56:23;99707.03;;;22.38;48.18
74218;BME280;62579;47.288;18.646;2023-06-14T12:58:49;99700.34;;;22.50;48.10
74218;BME280;62579;47.288;18.646;2023-06-14T13:01:14;99706.47;;;22.58;44.92
74218;BME280;62579;47.288;18.646;2023-06-14T13:03:39;99700.75;;;22.56;47.92
74218;BME280;62579;47.288;18.646;2023-06-14T13:06:05;99708.50;;;22.39;51.09
74218;BME280;62579;47.288;18.646;2023-06-14T13:08:30;99706.63;;;22.60;51.72
74218;BME280;62579;47.288;18.646;2023-06-14T13:10:56;99703.13;;;22.89;49.67
74218;BME280;62579;47.288;18.646;2023-06-14T13:13:22;99701.38;;;22.84;49.10
74218;BME280;62579;47.288;18.646;2023-06-14T13:15:48;99708.84;;;22.91;49.44
74218;BME280;62579;47.288;18.646;2023-06-14T13:18:15;99706.06;;;22.71;49.19
74218;BME280;62579;47.288;18.646;2023-06-14T13:20:40;99707.81;;;22.67;49.57